Time;durP1;ratioP1;P1;durP2;ratioP2;P2;SDS_P1;SDS_P2;PMS_P1;PMS_P2;Temp;Humidity;BMP_temperature;BMP_pressure;BME280_temperature;BME280_humidity;BME280_pressure;Samples;Min_cycle;Max_cycle;Signal;HPM_P1;HPM_P2
2022/06/08 00:01:29;;;;;;;6.03;2.53;;;9.60;99.90;;;;;;4161863;28;20206;-69
2022/06/08 00:03:47;;;;;;;5.53;2.50;;;9.50;99.90;;;;;;4162018;28;20230;-69
2022/06/08 00:05:48;;;;;;;6.37;2.40;;;9.50;99.90;;;;;;4161464;28;20218;-69
2022/06/08 00:07:48;;;;;;;4.23;2.30;;;9.50;99.90;;;;;;4164944;28;20169;-69
2022/06/08 00:09:49;;;;;;;6.07;2.70;;;9.40;99.90;;;;;;4164976;28;20226;-69
2022/06/08 00:11:49;;;;;;;6.37;2.70;;;9.40;99.90;;;;;;4165325;28;20656;-69
2022/06/08 00:13:50;;;;;;;3.80;2.57;;;9.40;99.90;;;;;;4164808;28;20313;-69
2022/06/08 00:15:53;;;;;;;6.73;2.63;;;9.30;99.90;;;;;;4164291;28;20212;-69
2022/06/08 00:17:54;;;;;;;7.50;2.53;;;9.40;99.90;;;;;;4164804;28;20202;-69
2022/06/08 00:19:54;;;;;;;4.07;2.43;;;9.40;99.90;;;;;;4164634;28;20196;-69
2022/06/08 00:21:55;;;;;;;5.27;2.43;;;9.40;99.90;;;;;;4163450;28;20559;-69
2022/06/08 00:23:56;;;;;;;6.70;2.40;;;9.40;99.90;;;;;;4164540;28;20193;-69
2022/06/08 00:25:57;;;;;;;6.20;2.60;;;9.40;99.90;;;;;;4164066;28;20208;-69
2022/06/08 00:27:57;;;;;;;2.80;1.90;;;9.40;99.90;;;;;;4164857;28;20197;-69
2022/06/08 00:29:59;;;;;;;3.63;2.83;;;9.30;99.90;;;;;;4164621;28;20549;-69
2022/06/08 00:31:59;;;;;;;3.30;2.27;;;9.30;99.90;;;;;;4164505;28;20184;-69
2022/06/08 00:34:00;;;;;;;5.13;2.10;;;9.30;99.90;;;;;;4164613;28;20709;-69
2022/06/08 00:36:01;;;;;;;4.23;2.43;;;9.20;99.90;;;;;;4163707;28;20655;-69
2022/06/08 00:38:01;;;;;;;4.50;1.87;;;9.20;99.90;;;;;;4164255;28;20830;-69
2022/06/08 00:40:03;;;;;;;4.87;2.10;;;9.20;99.90;;;;;;4164325;28;20191;-69
2022/06/08 00:42:08;;;;;;;4.40;2.97;;;9.20;99.90;;;;;;4164334;28;20562;-69
2022/06/08 00:44:16;;;;;;;5.97;2.53;;;9.10;99.90;;;;;;4164361;28;20193;-69
2022/06/08 00:46:17;;;;;;;4.40;2.47;;;9.10;99.90;;;;;;4163506;28;20210;-69
2022/06/08 00:48:18;;;;;;;6.63;2.40;;;9.10;99.90;;;;;;4164219;28;20246;-69
2022/06/08 00:50:28;;;;;;;3.87;2.10;;;9.10;99.90;;;;;;4164227;28;20214;-69
2022/06/08 00:52:29;;;;;;;3.33;2.47;;;9.10;99.90;;;;;;4164399;28;20183;-69
2022/06/08 00:54:37;;;;;;;4.17;2.30;;;9.00;99.90;;;;;;4164355;28;20943;-69
2022/06/08 00:56:45;;;;;;;6.17;2.27;;;9.00;99.90;;;;;;4163563;28;20173;-69
2022/06/08 00:58:45;;;;;;;4.10;2.20;;;9.10;99.90;;;;;;4164307;28;20424;-69
2022/06/08 01:00:46;;;;;;;5.73;2.30;;;9.10;99.90;;;;;;4164143;28;20419;-69
2022/06/08 01:02:47;;;;;;;6.67;2.23;;;9.10;99.90;;;;;;4163985;28;20204;-69
2022/06/08 01:04:48;;;;;;;4.63;2.50;;;9.00;99.90;;;;;;4163961;28;20210;-69
2022/06/08 01:06:57;;;;;;;5.13;2.53;;;8.90;99.90;;;;;;4179112;28;20186;-69
2022/06/08 01:08:57;;;;;;;3.57;2.40;;;8.90;99.90;;;;;;4180422;28;20184;-69
2022/06/08 01:11:03;;;;;;;5.77;2.17;;;8.80;99.90;;;;;;4180378;28;20202;-69
2022/06/08 01:13:05;;;;;;;5.97;2.47;;;8.70;99.90;;;;;;4180469;28;20282;-70
2022/06/08 01:15:06;;;;;;;4.50;2.43;;;8.70;99.90;;;;;;4180155;28;20426;-70
2022/06/08 01:17:12;;;;;;;6.87;2.30;;;8.60;99.90;;;;;;4179910;28;20185;-70
2022/06/08 01:19:13;;;;;;;4.97;2.23;;;8.60;99.90;;;;;;4179407;28;20181;-70
2022/06/08 01:21:20;;;;;;;3.40;2.17;;;8.60;99.90;;;;;;4180250;28;20786;-70
2022/06/08 01:23:22;;;;;;;5.40;2.43;;;8.60;99.90;;;;;;4180078;28;20214;-70
2022/06/08 01:25:24;;;;;;;3.90;2.50;;;8.70;99.90;;;;;;4179789;28;20414;-70
2022/06/08 01:27:51;;;;;;;5.23;2.27;;;8.70;99.90;;;;;;4180217;28;20419;-70
2022/06/08 01:30:33;;;;;;;3.17;2.33;;;8.70;99.90;;;;;;4180048;28;20419;-70
2022/06/08 01:32:57;;;;;;;6.90;2.10;;;8.80;99.90;;;;;;4167630;28;20416;-70
2022/06/08 01:35:19;;;;;;;4.07;2.30;;;8.70;99.90;;;;;;4179339;28;21219;-70
2022/06/08 01:37:41;;;;;;;5.63;2.37;;;8.80;99.90;;;;;;4180058;28;20517;-70
2022/06/08 01:39:56;;;;;;;4.47;2.30;;;8.80;99.90;;;;;;4180539;28;20934;-70
2022/06/08 01:42:06;;;;;;;5.53;2.43;;;8.70;99.90;;;;;;4180199;28;20414;-70
2022/06/08 01:44:34;;;;;;;4.93;2.27;;;8.70;99.90;;;;;;4180134;28;20434;-70
2022/06/08 01:46:44;;;;;;;7.83;2.30;;;8.80;99.90;;;;;;4179406;28;20525;-70
2022/06/08 01:49:12;;;;;;;6.73;2.70;;;8.90;99.90;;;;;;4180125;28;20980;-70
2022/06/08 01:51:44;;;;;;;3.90;2.30;;;8.90;99.90;;;;;;4180222;28;20174;-70
2022/06/08 01:53:56;;;;;;;3.33;2.43;;;9.00;99.90;;;;;;4175339;28;20470;-70
2022/06/08 01:56:11;;;;;;;2.90;1.90;;;9.00;99.90;;;;;;4163080;28;20484;-70
2022/06/08 01:58:36;;;;;;;4.07;2.37;;;9.00;99.90;;;;;;4163891;28;20499;-71
2022/06/08 02:00:43;;;;;;;6.23;2.47;;;9.00;99.90;;;;;;4164185;28;20419;-70
2022/06/08 02:02:53;;;;;;;6.87;2.43;;;9.00;99.90;;;;;;4163486;28;20986;-70
2022/06/08 02:05:15;;;;;;;5.80;2.10;;;9.10;99.90;;;;;;4163263;28;20197;-70
2022/06/08 02:07:27;;;;;;;4.27;2.40;;;9.10;99.90;;;;;;4162865;28;20180;-70
2022/06/08 02:09:30;;;;;;;9.27;2.37;;;9.10;99.90;;;;;;4163258;28;20460;-70
2022/06/08 02:11:39;;;;;;;8.27;2.80;;;9.10;99.90;;;;;;4163130;28;21585;-70
2022/06/08 02:13:54;;;;;;;5.37;2.37;;;9.00;99.90;;;;;;4162969;28;20461;-70
2022/06/08 02:16:11;;;;;;;4.50;2.30;;;9.00;99.90;;;;;;4162501;28;20254;-70
2022/06/08 02:18:25;;;;;;;2.93;2.03;;;8.90;99.90;;;;;;4162709;28;20616;-70
2022/06/08 02:20:51;;;;;;;6.33;2.30;;;8.80;99.90;;;;;;4162557;28;20277;-70
2022/06/08 02:23:03;;;;;;;5.53;2.17;;;8.70;99.90;;;;;;4159711;28;20168;-71
2022/06/08 02:25:11;;;;;;;4.50;2.47;;;8.70;99.90;;;;;;4176984;28;20197;-70
2022/06/08 02:27:18;;;;;;;2.57;2.03;;;8.70;99.90;;;;;;4178654;28;20186;-70
2022/06/08 02:29:23;;;;;;;4.40;2.03;;;8.60;99.90;;;;;;4178970;28;20417;-70
2022/06/08 02:31:35;;;;;;;2.03;1.73;;;8.60;99.90;;;;;;4179244;28;20454;-70
2022/06/08 02:36:09;;;;;;;4.00;2.00;;;8.50;99.90;;;;;;4178473;28;20602;-70
2022/06/08 02:38:15;;;;;;;3.23;1.90;;;8.50;99.90;;;;;;4176915;28;20446;-70
2022/06/08 02:40:20;;;;;;;3.37;2.10;;;8.50;99.90;;;;;;4179036;28;20185;-70
2022/06/08 02:42:28;;;;;;;3.70;2.37;;;8.40;99.90;;;;;;4179361;28;20168;-70
2022/06/08 02:44:32;;;;;;;9.07;2.57;;;8.30;99.90;;;;;;4179048;28;20582;-70
2022/06/08 02:47:10;;;;;;;5.63;2.70;;;8.40;99.90;;;;;;4178693;28;20818;-71
2022/06/08 02:49:11;;;;;;;9.33;2.30;;;8.40;99.90;;;;;;4175522;28;20207;-71
2022/06/08 02:51:12;;;;;;;3.47;2.33;;;8.50;99.90;;;;;;4179263;28;20276;-70
2022/06/08 02:53:19;;;;;;;3.30;2.37;;;8.50;99.90;;;;;;4178981;28;20212;-70
2022/06/08 02:55:36;;;;;;;5.47;1.87;;;8.50;99.90;;;;;;4178849;28;20233;-70
2022/06/08 02:57:49;;;;;;;2.33;1.83;;;8.60;99.90;;;;;;4178779;28;20264;-70
2022/06/08 03:00:19;;;;;;;5.97;2.50;;;8.60;99.90;;;;;;4178611;28;20183;-70
2022/06/08 03:02:34;;;;;;;2.10;1.80;;;8.60;99.90;;;;;;4179240;28;20182;-70
2022/06/08 03:04:39;;;;;;;2.33;1.93;;;8.70;99.90;;;;;;4179138;28;20293;-70
2022/06/08 03:06:53;;;;;;;3.83;2.33;;;8.70;99.90;;;;;;4178376;28;20442;-70
2022/06/08 03:08:57;;;;;;;5.47;2.70;;;8.70;99.90;;;;;;4179000;28;20410;-70
2022/06/08 03:11:01;;;;;;;3.67;2.60;;;8.60;99.90;;;;;;4178763;28;20421;-71
2022/06/08 03:13:11;;;;;;;4.47;2.53;;;8.60;99.90;;;;;;4177378;28;20569;-70
2022/06/08 03:15:15;;;;;;;4.77;2.23;;;8.80;99.90;;;;;;4178390;28;20550;-71
2022/06/08 03:17:17;;;;;;;4.10;2.10;;;8.80;99.90;;;;;;4178665;28;20478;-70
2022/06/08 03:19:18;;;;;;;3.63;2.13;;;8.90;99.90;;;;;;4178590;28;20915;-70
2022/06/08 03:21:19;;;;;;;4.97;2.17;;;8.80;99.90;;;;;;4178486;28;20194;-70
2022/06/08 03:23:20;;;;;;;4.53;2.03;;;8.80;99.90;;;;;;4178870;28;20734;-70
2022/06/08 03:25:22;;;;;;;3.43;1.83;;;8.90;99.90;;;;;;4178012;28;20211;-71
2022/06/08 03:27:23;;;;;;;3.00;2.17;;;8.90;99.90;;;;;;4178759;28;20791;-70
2022/06/08 03:29:24;;;;;;;5.03;2.20;;;9.00;99.90;;;;;;4178675;28;20180;-70
2022/06/08 03:31:25;;;;;;;5.10;2.17;;;9.10;99.90;;;;;;4178636;28;20185;-70
2022/06/08 03:33:25;;;;;;;3.83;1.90;;;9.10;99.90;;;;;;4178573;28;20232;-71
2022/06/08 03:35:26;;;;;;;2.97;1.97;;;9.10;99.90;;;;;;4177844;28;20655;-71
2022/06/08 03:37:26;;;;;;;3.87;2.00;;;9.10;99.90;;;;;;4178448;28;20176;-71
2022/06/08 03:39:27;;;;;;;3.33;1.80;;;9.20;99.90;;;;;;4178665;28;20177;-70
2022/06/08 03:41:27;;;;;;;2.77;1.90;;;9.30;99.90;;;;;;4179767;28;20213;-70
2022/06/08 03:43:28;;;;;;;6.77;1.90;;;9.30;99.90;;;;;;4182009;28;20225;-70
2022/06/08 03:45:53;;;;;;;5.37;1.80;;;9.30;99.90;;;;;;4181353;28;20185;-71
2022/06/08 03:47:54;;;;;;;2.43;2.00;;;9.40;99.90;;;;;;4181561;28;20315;-71
2022/06/08 03:49:58;;;;;;;5.23;2.07;;;9.40;99.90;;;;;;4167650;28;20179;-70
2022/06/08 03:52:00;;;;;;;3.40;2.07;;;9.50;99.90;;;;;;4165299;28;20200;-70
2022/06/08 03:54:16;;;;;;;2.93;1.93;;;9.60;99.90;;;;;;4165131;28;20842;-70
2022/06/08 03:56:18;;;;;;;2.13;1.83;;;9.70;99.90;;;;;;4164637;28;20207;-71
2022/06/08 03:58:20;;;;;;;4.50;2.60;;;9.70;99.90;;;;;;4165127;28;20188;-71
2022/06/08 04:00:23;;;;;;;4.33;2.23;;;9.70;99.90;;;;;;4165250;28;20186;-70
2022/06/08 04:02:25;;;;;;;6.40;2.03;;;9.60;99.90;;;;;;4165219;28;20175;-70
2022/06/08 04:04:26;;;;;;;3.07;1.87;;;9.50;99.90;;;;;;4165141;28;20227;-70
2022/06/08 04:06:27;;;;;;;2.67;1.93;;;9.50;99.90;;;;;;4164526;28;20214;-71
2022/06/08 04:08:28;;;;;;;3.83;1.90;;;9.60;99.90;;;;;;4165120;28;20185;-71
2022/06/08 04:10:28;;;;;;;3.87;1.90;;;9.50;99.90;;;;;;4165200;28;20255;-70
2022/06/08 04:12:29;;;;;;;4.47;1.83;;;9.50;99.90;;;;;;4165070;28;20271;-70
2022/06/08 04:14:29;;;;;;;4.70;1.77;;;9.50;99.90;;;;;;4165039;28;20181;-71
2022/06/08 04:16:30;;;;;;;2.67;1.83;;;9.70;99.90;;;;;;4164536;28;20176;-70
2022/06/08 04:18:31;;;;;;;2.90;2.00;;;9.70;99.90;;;;;;4164765;28;20634;-71
2022/06/08 04:20:31;;;;;;;3.70;1.73;;;9.70;99.90;;;;;;4164460;28;20623;-70
2022/06/08 04:22:32;;;;;;;2.67;1.73;;;9.70;99.90;;;;;;4164666;28;20219;-71
2022/06/08 04:24:32;;;;;;;2.23;1.80;;;9.80;99.90;;;;;;4164368;28;20659;-71
2022/06/08 04:26:33;;;;;;;5.27;2.00;;;9.80;99.90;;;;;;4163979;28;20183;-70
2022/06/08 04:28:34;;;;;;;3.10;1.57;;;9.90;99.90;;;;;;4164569;28;20180;-70
2022/06/08 04:30:36;;;;;;;2.10;1.80;;;10.00;99.90;;;;;;4164387;28;20254;-70
2022/06/08 04:32:36;;;;;;;5.17;2.23;;;10.10;99.90;;;;;;4164292;28;20727;-71
2022/06/08 04:34:39;;;;;;;3.27;1.90;;;10.10;99.90;;;;;;4166458;28;20211;-71
2022/06/08 04:36:41;;;;;;;4.43;2.00;;;10.10;99.90;;;;;;4170679;28;20524;-71
2022/06/08 04:38:42;;;;;;;3.97;2.03;;;10.10;99.90;;;;;;4180588;28;20172;-71
2022/06/08 04:40:45;;;;;;;3.03;2.07;;;10.20;99.90;;;;;;4180721;28;20250;-71
2022/06/08 04:42:45;;;;;;;3.40;1.90;;;10.30;99.90;;;;;;4180833;28;20179;-71
2022/06/08 04:44:46;;;;;;;3.73;2.03;;;10.30;99.90;;;;;;4180693;28;20242;-71
2022/06/08 04:46:47;;;;;;;2.77;2.00;;;10.20;99.90;;;;;;4180233;28;20182;-70
2022/06/08 04:48:47;;;;;;;4.67;2.17;;;10.30;99.90;;;;;;4180779;28;20186;-70
2022/06/08 04:50:48;;;;;;;6.70;1.97;;;10.40;99.90;;;;;;4180753;28;20192;-70
2022/06/08 04:52:49;;;;;;;2.97;1.90;;;10.60;99.90;;;;;;4180633;28;20590;-70
2022/06/08 04:54:50;;;;;;;3.40;1.90;;;10.60;99.90;;;;;;4180346;28;20242;-70
2022/06/08 04:56:52;;;;;;;6.23;2.30;;;10.60;99.90;;;;;;4178687;28;20243;-70
2022/06/08 04:58:54;;;;;;;3.00;1.70;;;10.60;99.90;;;;;;4180861;28;20908;-70
2022/06/08 05:00:55;;;;;;;3.80;1.90;;;10.60;99.90;;;;;;4180920;28;20222;-70
2022/06/08 05:02:55;;;;;;;3.30;1.70;;;10.60;99.90;;;;;;4180578;28;20944;-70
2022/06/08 05:04:56;;;;;;;3.80;2.03;;;10.70;99.90;;;;;;4180538;28;20212;-71
2022/06/08 05:06:56;;;;;;;3.13;2.00;;;10.70;99.90;;;;;;4178538;28;20266;-70
2022/06/08 05:08:57;;;;;;;4.53;2.20;;;10.90;99.90;;;;;;4180368;28;20230;-71
2022/06/08 05:10:58;;;;;;;3.07;2.20;;;10.80;99.90;;;;;;4180397;28;20238;-71
2022/06/08 05:12:59;;;;;;;4.17;2.33;;;10.80;99.90;;;;;;4180378;28;20179;-71
2022/06/08 05:14:59;;;;;;;3.93;2.70;;;10.80;99.90;;;;;;4179939;28;20223;-71
2022/06/08 05:17:00;;;;;;;6.00;2.97;;;10.80;99.90;;;;;;4179841;28;20256;-71
2022/06/08 05:19:00;;;;;;;6.63;2.87;;;10.70;99.90;;;;;;4180115;28;20200;-71
2022/06/08 05:21:01;;;;;;;10.93;3.37;;;10.60;99.90;;;;;;4180087;28;20192;-71
2022/06/08 05:23:03;;;;;;;6.67;3.30;;;10.60;99.90;;;;;;4180020;28;20176;-71
2022/06/08 05:25:06;;;;;;;7.03;2.83;;;10.60;99.90;;;;;;4179945;28;20706;-70
2022/06/08 05:27:07;;;;;;;6.77;3.00;;;10.60;99.90;;;;;;4179665;28;20177;-71
2022/06/08 05:29:07;;;;;;;4.37;2.50;;;10.50;99.90;;;;;;4179981;28;20663;-71
2022/06/08 05:31:09;;;;;;;4.33;2.70;;;10.50;99.90;;;;;;4179993;28;20265;-71
2022/06/08 05:33:11;;;;;;;4.17;2.43;;;10.50;99.90;;;;;;4179960;28;20202;-71
2022/06/08 05:35:13;;;;;;;3.97;2.10;;;10.40;99.90;;;;;;4179496;28;20694;-71
2022/06/08 05:37:13;;;;;;;4.03;2.30;;;10.50;99.90;;;;;;4179478;28;20199;-71
2022/06/08 05:39:14;;;;;;;4.80;2.60;;;10.60;99.90;;;;;;4179721;28;20176;-70
2022/06/08 05:41:15;;;;;;;4.70;2.20;;;10.60;99.90;;;;;;4179851;28;20545;-71
2022/06/08 05:43:17;;;;;;;6.50;2.30;;;10.50;99.90;;;;;;4178459;28;20203;-71
2022/06/08 05:45:23;;;;;;;5.27;2.37;;;10.50;99.90;;;;;;4179422;28;20200;-71
2022/06/08 05:47:24;;;;;;;6.57;2.53;;;10.40;99.90;;;;;;4179613;28;20210;-71
2022/06/08 05:49:25;;;;;;;6.50;2.60;;;10.40;99.90;;;;;;4178431;28;20184;-71
2022/06/08 05:51:26;;;;;;;3.13;2.20;;;10.40;99.90;;;;;;4179816;28;20191;-71
2022/06/08 05:53:27;;;;;;;5.70;2.30;;;10.40;99.90;;;;;;4172536;28;20573;-71
2022/06/08 05:55:28;;;;;;;2.73;1.67;;;10.40;99.90;;;;;;4162348;28;20299;-71
2022/06/08 05:57:28;;;;;;;4.17;2.20;;;10.40;99.90;;;;;;4163092;28;20184;-71
2022/06/08 05:59:29;;;;;;;4.50;1.60;;;10.50;99.90;;;;;;4163126;28;20256;-71
2022/06/08 06:01:31;;;;;;;5.97;2.00;;;10.60;99.90;;;;;;4163054;28;20256;-71
2022/06/08 06:03:32;;;;;;;9.53;2.00;;;10.50;99.90;;;;;;4162950;28;20529;-71
2022/06/08 06:05:33;;;;;;;5.53;1.90;;;10.60;99.90;;;;;;4162369;28;20187;-71
2022/06/08 06:07:33;;;;;;;3.77;1.70;;;10.70;99.90;;;;;;4162887;28;20196;-71
2022/06/08 06:09:34;;;;;;;3.53;2.00;;;10.80;99.90;;;;;;4162915;28;20235;-71
2022/06/08 06:11:35;;;;;;;5.00;1.70;;;10.90;99.90;;;;;;4162832;28;20180;-71
2022/06/08 06:13:37;;;;;;;2.43;1.50;;;11.00;99.90;;;;;;4170646;28;20192;-71
2022/06/08 06:15:37;;;;;;;4.37;1.70;;;11.10;99.90;;;;;;4178558;28;20203;-71
2022/06/08 06:17:38;;;;;;;8.33;2.00;;;11.20;99.90;;;;;;4178974;28;20176;-71
2022/06/08 06:19:38;;;;;;;3.30;1.70;;;11.30;99.90;;;;;;4179164;28;20186;-71
2022/06/08 06:21:39;;;;;;;4.60;1.97;;;11.50;99.90;;;;;;4178605;28;20196;-71
2022/06/08 06:23:39;;;;;;;3.43;1.70;;;11.60;99.90;;;;;;4179103;28;20176;-71
2022/06/08 06:25:40;;;;;;;3.40;1.50;;;11.80;99.90;;;;;;4178574;28;20259;-71
2022/06/08 06:27:41;;;;;;;3.87;1.70;;;11.90;99.90;;;;;;4179029;28;20206;-71
2022/06/08 06:29:41;;;;;;;2.93;1.50;;;12.00;99.90;;;;;;4179023;28;20187;-71
2022/06/08 06:31:52;;;;;;;5.53;1.50;;;12.10;99.90;;;;;;4178927;28;20180;-71
2022/06/08 06:33:53;;;;;;;4.03;1.20;;;12.20;99.90;;;;;;4178901;28;20188;-70
2022/06/08 06:35:56;;;;;;;5.40;2.00;;;12.50;99.90;;;;;;4178423;28;20246;-71
2022/06/08 06:37:56;;;;;;;3.07;1.33;;;12.50;99.90;;;;;;4178857;28;20165;-71
2022/06/08 06:39:57;;;;;;;4.03;1.40;;;12.70;99.80;;;;;;4178855;28;20183;-71
2022/06/08 06:41:59;;;;;;;4.20;1.60;;;12.70;99.70;;;;;;4178812;28;20678;-71
2022/06/08 06:44:00;;;;;;;2.63;1.30;;;12.90;98.90;;;;;;4178869;28;20786;-71
2022/06/08 06:46:02;;;;;;;2.80;1.23;;;13.10;98.10;;;;;;4178239;28;20185;-71
2022/06/08 06:48:03;;;;;;;3.83;1.57;;;13.30;97.60;;;;;;4178486;28;20255;-71
2022/06/08 06:50:06;;;;;;;3.43;1.30;;;13.40;97.40;;;;;;4178641;28;20659;-71
2022/06/08 06:52:09;;;;;;;2.10;1.20;;;13.70;96.20;;;;;;4178499;28;20242;-70
2022/06/08 06:54:11;;;;;;;4.77;1.20;;;14.00;95.40;;;;;;4178751;28;20196;-70
2022/06/08 06:56:12;;;;;;;2.43;1.10;;;14.30;94.30;;;;;;4178172;28;20216;-71
2022/06/08 06:58:12;;;;;;;2.80;1.33;;;14.60;94.50;;;;;;4178846;28;20215;-71
2022/06/08 07:00:14;;;;;;;4.20;1.27;;;14.80;92.10;;;;;;4177229;28;20211;-71
2022/06/08 07:02:17;;;;;;;1.77;1.23;;;15.00;91.00;;;;;;4178764;28;20230;-71
2022/06/08 07:04:18;;;;;;;1.63;1.07;;;15.00;91.20;;;;;;4178666;28;20184;-70
2022/06/08 07:06:18;;;;;;;3.87;1.20;;;15.20;88.00;;;;;;4177838;28;20244;-71
2022/06/08 07:08:19;;;;;;;2.50;1.40;;;15.40;90.60;;;;;;4178650;28;20181;-70
2022/06/08 07:10:20;;;;;;;3.30;1.27;;;15.70;84.50;;;;;;4178560;28;20215;-70
2022/06/08 07:12:20;;;;;;;2.77;1.27;;;15.90;80.80;;;;;;4178622;28;20195;-71
2022/06/08 07:14:21;;;;;;;3.17;1.20;;;15.90;82.10;;;;;;4178750;28;20740;-70
2022/06/08 07:16:22;;;;;;;2.37;1.10;;;16.20;81.50;;;;;;4178717;28;20203;-70
2022/06/08 07:18:22;;;;;;;5.43;1.20;;;16.20;80.60;;;;;;4181676;28;20233;-70
2022/06/08 07:20:24;;;;;;;3.30;1.10;;;16.50;80.50;;;;;;4181682;28;20192;-70
2022/06/08 07:22:25;;;;;;;2.57;1.10;;;16.60;73.60;;;;;;4181894;28;20243;-70
2022/06/08 07:24:33;;;;;;;1.70;1.03;;;16.50;73.90;;;;;;4181686;28;20717;-70
2022/06/08 07:26:35;;;;;;;2.57;1.17;;;16.40;72.60;;;;;;4181228;28;20184;-70
2022/06/08 07:28:35;;;;;;;3.17;1.47;;;16.40;70.70;;;;;;4181913;28;20174;-70
2022/06/08 07:30:36;;;;;;;2.07;1.20;;;16.60;70.00;;;;;;4181612;28;20207;-70
2022/06/08 07:32:37;;;;;;;1.83;1.10;;;16.90;70.70;;;;;;4181273;28;20173;-71
2022/06/08 07:34:38;;;;;;;1.63;1.40;;;17.30;67.30;;;;;;4170279;28;20302;-71
2022/06/08 07:36:38;;;;;;;3.37;1.30;;;17.30;66.40;;;;;;4176497;28;20271;-71
2022/06/08 07:38:40;;;;;;;3.57;1.00;;;17.50;63.10;;;;;;4177818;28;20185;-70
2022/06/08 07:40:41;;;;;;;2.50;0.90;;;17.70;65.10;;;;;;4176804;28;20172;-70
2022/06/08 07:42:41;;;;;;;3.17;1.30;;;17.50;65.40;;;;;;4174926;28;20207;-69
2022/06/08 07:44:42;;;;;;;5.43;1.50;;;17.80;60.40;;;;;;4178305;28;20222;-70
2022/06/08 07:46:43;;;;;;;3.30;1.10;;;18.10;59.10;;;;;;4176931;28;20238;-69
2022/06/08 07:51:02;;;;;;;2.07;1.07;;;17.70;58.60;;;;;;4177427;28;20210;-68
2022/06/08 07:53:03;;;;;;;4.27;1.23;;;17.70;57.10;;;;;;4178123;28;20188;-67
2022/06/08 07:55:04;;;;;;;1.97;1.30;;;17.60;56.80;;;;;;4177649;28;20679;-67
2022/06/08 07:57:05;;;;;;;6.43;1.20;;;17.60;58.00;;;;;;4176609;28;20558;-68
2022/06/08 07:59:07;;;;;;;3.93;1.00;;;17.50;57.80;;;;;;4178068;28;20192;-68
2022/06/08 08:01:07;;;;;;;4.97;1.30;;;17.30;56.70;;;;;;4175073;28;20755;-68
2022/06/08 08:03:08;;;;;;;3.07;1.17;;;17.30;56.30;;;;;;4179648;28;20192;-67
2022/06/08 08:05:11;;;;;;;4.67;1.60;;;17.10;58.60;;;;;;4180724;28;20209;-68
2022/06/08 08:07:11;;;;;;;3.27;1.10;;;17.00;60.30;;;;;;4180449;28;20612;-67
2022/06/08 08:09:20;;;;;;;2.93;1.20;;;17.20;61.00;;;;;;4179996;28;20180;-68
2022/06/08 08:11:22;;;;;;;2.67;1.10;;;17.30;61.30;;;;;;4180951;28;20179;-67
2022/06/08 08:13:22;;;;;;;1.53;1.00;;;17.30;60.90;;;;;;4180709;28;20233;-69
2022/06/08 08:15:24;;;;;;;1.73;1.10;;;17.50;60.80;;;;;;4180091;28;20869;-68
2022/06/08 08:17:25;;;;;;;2.20;1.03;;;17.70;62.50;;;;;;4180723;28;20172;-68
2022/06/08 08:19:26;;;;;;;1.40;0.77;;;17.80;57.50;;;;;;4180537;28;20184;-68
2022/06/08 08:21:26;;;;;;;2.03;1.10;;;17.80;57.70;;;;;;4180488;28;20195;-68
2022/06/08 08:23:27;;;;;;;1.90;1.10;;;17.80;54.40;;;;;;4180289;28;20180;-68
2022/06/08 08:25:29;;;;;;;2.60;1.07;;;17.40;55.50;;;;;;4179991;28;20184;-67
2022/06/08 08:27:30;;;;;;;2.77;1.27;;;17.30;57.10;;;;;;4179927;28;20191;-68
2022/06/08 08:29:31;;;;;;;2.07;1.00;;;17.30;56.40;;;;;;4180540;28;20590;-68
2022/06/08 08:31:32;;;;;;;1.77;1.13;;;17.50;57.20;;;;;;4180675;28;20187;-68
2022/06/08 08:33:33;;;;;;;3.57;0.90;;;17.60;53.80;;;;;;4180243;28;20227;-68
2022/06/08 08:35:35;;;;;;;3.33;1.00;;;17.60;51.50;;;;;;4180143;28;20257;-68
2022/06/08 08:37:36;;;;;;;3.07;1.00;;;17.70;51.90;;;;;;4180803;28;20262;-68
2022/06/08 08:39:36;;;;;;;0.97;0.77;;;17.90;50.80;;;;;;4180216;28;20263;-68
2022/06/08 08:43:57;;;;;;;2.67;1.10;;;18.20;52.00;;;;;;4180020;28;20207;-68
2022/06/08 08:46:31;;;;;;;4.50;1.20;;;18.20;52.80;;;;;;4179443;28;20184;-68
2022/06/08 08:48:50;;;;;;;2.33;0.83;;;18.30;51.80;;;;;;4179881;28;20184;-68
2022/06/08 08:51:20;;;;;;;1.93;1.27;;;18.40;50.00;;;;;;4179834;28;20192;-68
2022/06/08 08:53:29;;;;;;;5.17;1.57;;;18.40;49.50;;;;;;4180328;28;20240;-68
2022/06/08 08:55:56;;;;;;;4.30;1.00;;;18.70;47.60;;;;;;4194561;28;20203;-69
2022/06/08 08:58:20;;;;;;;1.70;1.00;;;18.70;48.20;;;;;;4184532;28;20179;-70
2022/06/08 09:00:39;;;;;;;2.40;0.93;;;18.60;49.70;;;;;;4188236;28;20930;-69
2022/06/08 09:04:59;;;;;;;6.23;1.77;;;18.40;49.00;;;;;;4189896;28;20226;-69
2022/06/08 09:07:11;;;;;;;2.70;1.20;;;18.50;49.30;;;;;;4182349;28;20188;-69
2022/06/08 09:09:20;;;;;;;0.90;0.80;;;18.50;49.20;;;;;;4194623;28;20179;-69
2022/06/08 09:11:47;;;;;;;4.60;1.07;;;18.70;46.70;;;;;;4179417;28;20203;-69
2022/06/08 09:14:03;;;;;;;2.23;0.97;;;18.80;45.90;;;;;;4168792;28;20213;-69
2022/06/08 09:16:03;;;;;;;1.10;0.90;;;19.40;44.90;;;;;;4184861;28;20790;-70
2022/06/08 09:18:05;;;;;;;3.33;1.43;;;20.00;44.00;;;;;;4185056;28;20171;-68
2022/06/08 09:20:29;;;;;;;1.60;1.00;;;20.00;42.80;;;;;;4189872;28;20189;-69
2022/06/08 09:22:31;;;;;;;2.30;0.97;;;20.20;45.50;;;;;;4188690;28;20184;-68
2022/06/08 09:24:34;;;;;;;1.10;1.00;;;20.50;42.80;;;;;;4185996;28;20212;-67
2022/06/08 09:26:40;;;;;;;1.77;1.20;;;20.80;44.50;;;;;;4178974;28;20180;-67
2022/06/08 09:28:41;;;;;;;2.77;1.20;;;21.00;42.90;;;;;;4189996;28;20266;-68
2022/06/08 09:30:49;;;;;;;2.80;1.00;;;21.20;41.70;;;;;;4184607;28;20189;-68
2022/06/08 09:33:13;;;;;;;2.43;0.90;;;21.50;40.90;;;;;;4189673;28;20689;-68
2022/06/08 09:35:19;;;;;;;2.20;1.10;;;20.70;41.10;;;;;;4178674;28;20694;-69
2022/06/08 09:37:23;;;;;;;3.43;1.30;;;20.40;41.40;;;;;;4181809;28;20183;-67
2022/06/08 09:39:24;;;;;;;3.47;0.80;;;20.70;41.10;;;;;;4173664;28;20188;-67
2022/06/08 09:41:34;;;;;;;4.10;1.20;;;21.30;40.10;;;;;;4195290;28;20643;-69
2022/06/08 09:44:12;;;;;;;1.20;0.80;;;21.20;40.40;;;;;;4180705;28;20659;-68
2022/06/08 09:51:38;;;;;;;1.40;1.10;;;20.80;41.10;;;;;;4194914;28;20943;-67
2022/06/08 09:54:06;;;;;;;1.63;0.90;;;20.40;43.30;;;;;;4166547;28;20196;-68
2022/06/08 09:56:25;;;;;;;2.70;1.00;;;20.20;43.40;;;;;;4185704;28;20195;-68
2022/06/08 09:58:50;;;;;;;2.87;1.30;;;20.20;43.90;;;;;;4186608;28;20814;-68
2022/06/08 10:01:10;;;;;;;2.10;1.23;;;20.40;44.60;;;;;;4190792;28;20187;-69
2022/06/08 10:03:26;;;;;;;2.70;0.80;;;20.60;41.30;;;;;;4192381;28;20606;-67
2022/06/08 10:05:44;;;;;;;2.30;0.87;;;20.50;41.60;;;;;;4174871;28;20257;-69
2022/06/08 10:08:11;;;;;;;1.97;1.00;;;20.40;43.20;;;;;;4179944;28;20853;-68
2022/06/08 10:10:23;;;;;;;2.13;1.07;;;20.20;43.90;;;;;;4178889;28;20177;-68
2022/06/08 10:12:43;;;;;;;1.90;0.87;;;20.00;42.70;;;;;;4187184;28;20257;-67
2022/06/08 10:15:04;;;;;;;2.00;1.00;;;20.70;44.70;;;;;;4183826;28;20204;-67
2022/06/08 10:17:17;;;;;;;2.60;1.00;;;21.20;40.00;;;;;;4192214;28;20263;-67
2022/06/08 10:19:47;;;;;;;2.00;1.10;;;20.80;40.40;;;;;;4178987;28;20634;-67
2022/06/08 10:21:49;;;;;;;2.60;1.20;;;20.80;40.50;;;;;;4159202;28;20195;-68
2022/06/08 10:24:02;;;;;;;2.40;1.40;;;21.10;40.40;;;;;;4191074;28;20303;-67
2022/06/08 10:26:15;;;;;;;1.30;1.00;;;21.60;40.20;;;;;;4172612;28;20180;-67
2022/06/08 10:28:34;;;;;;;2.93;1.50;;;21.80;40.20;;;;;;4187995;28;20291;-67
2022/06/08 10:30:43;;;;;;;2.03;1.00;;;21.90;38.40;;;;;;4188968;28;20262;-68
2022/06/08 10:32:59;;;;;;;2.50;1.07;;;22.00;38.80;;;;;;4184336;28;20198;-69
2022/06/08 10:35:13;;;;;;;2.70;1.13;;;22.20;36.10;;;;;;4192123;28;20198;-68
2022/06/08 10:37:18;;;;;;;1.47;1.30;;;22.50;36.00;;;;;;4178974;28;20180;-69
2022/06/08 10:39:19;;;;;;;1.43;1.20;;;22.90;36.90;;;;;;4188821;28;20189;-68
2022/06/08 10:44:05;;;;;;;2.77;1.40;;;22.60;36.70;;;;;;4188793;28;20206;-68
2022/06/08 10:46:28;;;;;;;1.57;1.30;;;23.40;35.10;;;;;;4178584;28;20196;-69
2022/06/08 10:48:43;;;;;;;3.50;1.20;;;24.10;34.40;;;;;;4165527;28;20213;-70
2022/06/08 10:50:48;;;;;;;3.67;1.40;;;24.10;35.20;;;;;;4192771;28;20176;-69
2022/06/08 10:52:49;;;;;;;3.30;1.50;;;25.10;33.70;;;;;;4182774;28;20190;-68
2022/06/08 10:54:53;;;;;;;4.20;1.23;;;26.40;30.30;;;;;;4191180;28;20227;-67
2022/06/08 10:56:56;;;;;;;2.17;1.17;;;26.00;30.50;;;;;;4179601;28;20250;-65
2022/06/08 10:59:03;;;;;;;2.33;1.20;;;26.10;29.20;;;;;;4178479;28;20185;-66
2022/06/08 11:01:05;;;;;;;3.10;1.10;;;25.80;30.40;;;;;;4184652;28;20644;-66
2022/06/08 11:03:22;;;;;;;5.73;1.30;;;24.90;31.10;;;;;;4175513;28;20574;-65
2022/06/08 11:05:31;;;;;;;2.20;1.43;;;24.60;30.70;;;;;;4186033;28;20828;-68
2022/06/08 11:08:01;;;;;;;3.10;1.00;;;24.10;31.80;;;;;;4178015;28;20192;-67
2022/06/08 11:10:04;;;;;;;1.20;1.10;;;23.20;35.40;;;;;;4191997;28;20236;-67
2022/06/08 11:12:13;;;;;;;2.30;1.10;;;22.70;35.10;;;;;;4179878;28;20591;-68
2022/06/08 11:14:31;;;;;;;1.13;0.90;;;22.90;34.70;;;;;;4193592;28;20659;-67
2022/06/08 11:16:32;;;;;;;2.97;1.10;;;23.10;35.30;;;;;;4163841;28;20212;-68